Terminal Aerodrome Forecast
Issued by NWS

Home | Current Version | Previous Version | Text Only | Print | Product List | Glossary On
Versions: 1 2 3 4 5 6 7 8 9 10 11 12 13
609
FTUS44 KTSA 070527
TAFBVO
TAF
KBVO 070527Z 0706/0806 23006KT P6SM SKC
     FM071400 26007KT P6SM SCT250
     FM071900 32010G18KT P6SM SCT250=

USA.gov is the U.S. government's official web portal to all federal, state and local government web resources and services.